Janesville, California
Current Conditions -  °F | °C
As of 5:55 AM on Saturday 25 Oct 2014 (Local Time) from KRTS Reporting Station
Clear Clear  
Wind Chill: 57°   Ceiling: Unl
Heat Index: 57°   Visibility: 10mi
Dew Point: 25°   Wind: 23mph
Humidity: 29%   Direction: 220°SW
Pressure: 29.91"   Gusts: 31mph
Location:  40.3°N, 120.53°W
Report Text: KRTS 251255Z AUTO 22020G27KT 10SM CLR 14/M04 A2991 RMK AO2
Loading
Personal Weather Stations






























Interactive Weather Map
Tropical Storm Tracking
New forecast layout! Learn more

10-Day Weather Forecast

Advertisements
Track Severe Weather on mobile